createdAt,value
2022-07-26T00:00:14.109Z,80.50
2022-07-26T00:02:48.135Z,80.60
2022-07-26T00:05:17.780Z,80.60
2022-07-26T00:07:45.972Z,80.60
2022-07-26T00:10:14.157Z,80.60
2022-07-26T00:12:41.806Z,81.30
2022-07-26T00:15:11.632Z,80.80
2022-07-26T00:17:39.331Z,81.00
2022-07-26T00:20:07.512Z,80.70
2022-07-26T00:22:34.748Z,80.80
2022-07-26T00:25:07.698Z,80.90
2022-07-26T00:27:37.112Z,80.90
2022-07-26T00:30:09.823Z,80.80
2022-07-26T00:32:37.635Z,80.70
2022-07-26T00:35:06.058Z,80.70
2022-07-26T00:37:33.119Z,80.60
2022-07-26T00:39:59.967Z,80.40
2022-07-26T00:42:27.063Z,80.50
2022-07-26T00:44:53.941Z,80.60
2022-07-26T00:47:20.864Z,80.90
2022-07-26T00:49:47.775Z,81.10
2022-07-26T00:52:14.911Z,81.40
2022-07-26T00:54:45.790Z,81.60
2022-07-26T00:57:14.925Z,81.80
2022-07-26T00:59:42.633Z,79.60
2022-07-26T01:02:10.735Z,81.30
2022-07-26T01:04:37.931Z,81.60
2022-07-26T01:07:15.377Z,81.40
2022-07-26T01:09:43.372Z,81.40
2022-07-26T01:12:10.742Z,81.60
2022-07-26T01:14:38.141Z,81.70
2022-07-26T01:17:05.222Z,81.70
2022-07-26T01:19:32.303Z,81.70
2022-07-26T01:21:59.336Z,81.80
2022-07-26T01:24:26.378Z,82.00
2022-07-26T01:26:55.529Z,81.80
2022-07-26T01:29:23.760Z,81.80
2022-07-26T01:32:03.994Z,81.80
2022-07-26T01:34:31.005Z,81.70
2022-07-26T01:36:57.965Z,81.60
2022-07-26T01:39:24.936Z,81.90
2022-07-26T01:41:52.088Z,81.60
2022-07-26T01:44:18.948Z,81.50
2022-07-26T01:46:45.774Z,81.50
2022-07-26T01:49:12.725Z,81.90
2022-07-26T01:51:39.612Z,82.20
2022-07-26T01:54:07.164Z,82.00
2022-07-26T01:56:34.403Z,82.00
2022-07-26T01:59:01.709Z,82.20
2022-07-26T02:01:39.501Z,82.30
2022-07-26T02:04:28.831Z,82.10
2022-07-26T02:06:55.851Z,82.00
2022-07-26T02:09:22.752Z,82.00
2022-07-26T02:11:49.629Z,82.20
2022-07-26T02:14:25.580Z,82.20
2022-07-26T02:17:00.042Z,82.30
2022-07-26T02:19:31.433Z,82.30
2022-07-26T02:21:58.807Z,82.20
2022-07-26T02:24:28.997Z,82.50
2022-07-26T02:27:00.983Z,82.70
2022-07-26T02:29:28.751Z,82.30
2022-07-26T02:31:56.460Z,82.50
2022-07-26T02:34:23.794Z,82.60
2022-07-26T02:36:51.005Z,82.70
2022-07-26T02:39:18.712Z,82.60
2022-07-26T02:41:45.704Z,82.40
2022-07-26T02:44:12.598Z,82.60
2022-07-26T02:46:39.597Z,82.60
2022-07-26T02:49:06.622Z,82.60
2022-07-26T02:51:33.665Z,82.30
2022-07-26T02:54:00.561Z,82.20
2022-07-26T02:56:27.663Z,82.40
2022-07-26T02:58:54.565Z,82.30
2022-07-26T03:01:22.481Z,82.40
2022-07-26T03:03:51.115Z,82.20
2022-07-26T03:06:19.730Z,81.80
2022-07-26T03:08:48.195Z,81.80
2022-07-26T03:11:15.651Z,81.80
2022-07-26T03:13:42.506Z,81.80
2022-07-26T03:16:09.666Z,81.70
2022-07-26T03:18:36.672Z,81.70
2022-07-26T03:21:03.745Z,81.80
2022-07-26T03:23:33.514Z,81.80
2022-07-26T03:26:02.013Z,81.80
2022-07-26T03:28:33.879Z,81.70
2022-07-26T03:31:01.658Z,81.20
2022-07-26T03:33:29.946Z,81.60
2022-07-26T03:35:57.151Z,81.70
2022-07-26T03:38:24.614Z,81.70
2022-07-26T03:40:52.044Z,82.00
2022-07-26T03:43:23.391Z,82.00
2022-07-26T03:45:54.639Z,82.10
2022-07-26T03:48:22.036Z,82.10
2022-07-26T03:50:49.271Z,82.10
2022-07-26T03:53:16.124Z,82.10
2022-07-26T03:56:01.903Z,82.20
2022-07-26T03:58:28.761Z,82.10
2022-07-26T04:00:55.634Z,82.00
2022-07-26T04:03:22.712Z,82.10
2022-07-26T04:05:49.654Z,82.10
2022-07-26T04:08:19.514Z,82.00
2022-07-26T04:10:51.079Z,82.00
2022-07-26T04:13:19.737Z,82.30
2022-07-26T04:15:47.203Z,82.50
2022-07-26T04:18:16.911Z,82.30
2022-07-26T04:20:44.212Z,82.40
2022-07-26T04:23:12.128Z,82.60
2022-07-26T04:25:41.570Z,82.60
2022-07-26T04:28:10.469Z,82.60
2022-07-26T04:30:38.757Z,82.60
2022-07-26T04:33:06.106Z,82.50
2022-07-26T04:35:33.862Z,82.30
2022-07-26T04:38:02.289Z,82.20
2022-07-26T04:40:33.360Z,82.20
2022-07-26T04:43:02.175Z,82.10
2022-07-26T04:45:30.016Z,82.20
2022-07-26T04:47:57.774Z,82.40
2022-07-26T04:50:28.099Z,82.60
2022-07-26T04:52:55.505Z,83.00
2022-07-26T04:55:23.704Z,82.40
2022-07-26T04:57:51.414Z,82.60
2022-07-26T05:00:24.177Z,82.60
2022-07-26T05:02:57.080Z,82.60
2022-07-26T05:05:26.029Z,82.30
2022-07-26T05:07:56.359Z,82.70
2022-07-26T05:10:35.167Z,82.70
2022-07-26T05:13:05.005Z,81.40
2022-07-26T05:15:35.491Z,82.20
2022-07-26T05:18:13.451Z,82.20
2022-07-26T05:20:40.936Z,81.20
2022-07-26T05:23:08.089Z,82.20
2022-07-26T05:25:36.551Z,82.30
2022-07-26T05:28:03.956Z,82.40
2022-07-26T05:30:30.981Z,82.50
2022-07-26T05:32:57.946Z,82.20
2022-07-26T05:35:24.814Z,82.10
2022-07-26T05:37:51.720Z,82.10
2022-07-26T05:40:18.692Z,82.20
2022-07-26T05:42:45.678Z,81.90
2022-07-26T05:45:12.738Z,81.90
2022-07-26T05:47:39.913Z,82.10
2022-07-26T05:50:07.749Z,81.90
2022-07-26T05:52:35.439Z,82.10
2022-07-26T05:55:02.341Z,82.10
2022-07-26T05:57:29.331Z,82.00
2022-07-26T05:59:56.256Z,82.20
2022-07-26T06:02:23.241Z,82.30
2022-07-26T06:04:50.280Z,82.40
2022-07-26T06:07:17.265Z,82.60
2022-07-26T06:09:44.610Z,82.60
2022-07-26T06:12:11.546Z,82.50
2022-07-26T06:14:38.431Z,82.30
2022-07-26T06:17:05.488Z,82.20
2022-07-26T06:19:32.936Z,82.20
2022-07-26T06:22:00.291Z,81.40
2022-07-26T06:24:27.322Z,80.90
2022-07-26T06:26:57.582Z,80.60
2022-07-26T06:29:32.401Z,80.40
2022-07-26T06:32:00.024Z,80.70
2022-07-26T06:34:27.239Z,80.80
2022-07-26T06:36:54.095Z,81.10
2022-07-26T06:39:21.023Z,81.50
2022-07-26T06:41:48.095Z,81.90
2022-07-26T06:44:15.305Z,82.50
2022-07-26T06:46:42.272Z,82.90
2022-07-26T06:49:09.205Z,83.20
2022-07-26T06:51:36.188Z,83.50
2022-07-26T06:54:03.798Z,83.30
2022-07-26T06:56:32.431Z,83.00
2022-07-26T06:58:59.309Z,83.00
2022-07-26T07:01:57.460Z,83.10
2022-07-26T07:04:12.993Z,83.40
2022-07-26T07:06:40.580Z,83.50
2022-07-26T07:09:08.949Z,83.50
2022-07-26T07:11:36.583Z,83.60
2022-07-26T07:14:05.160Z,83.70
2022-07-26T07:16:32.269Z,83.70
2022-07-26T07:18:59.170Z,83.00
2022-07-26T07:21:26.328Z,83.10
2022-07-26T07:23:53.162Z,83.10
2022-07-26T07:26:20.281Z,83.10
2022-07-26T07:29:07.516Z,83.10
2022-07-26T07:31:48.604Z,82.90
2022-07-26T07:34:19.423Z,82.70
2022-07-26T07:36:47.129Z,82.90
2022-07-26T07:39:17.458Z,82.70
2022-07-26T07:41:45.791Z,82.10
2022-07-26T07:44:13.424Z,82.00
2022-07-26T07:46:40.674Z,81.70
2022-07-26T07:49:08.205Z,81.00
2022-07-26T07:51:36.197Z,80.70
2022-07-26T07:54:05.917Z,80.10
2022-07-26T07:56:33.827Z,79.40
2022-07-26T07:59:01.343Z,79.30
2022-07-26T08:01:40.647Z,79.10
2022-07-26T08:04:09.561Z,78.80
2022-07-26T08:06:37.004Z,79.50
2022-07-26T08:09:05.597Z,80.60
2022-07-26T08:11:34.443Z,81.40
2022-07-26T08:14:01.901Z,82.30
2022-07-26T08:16:29.141Z,82.70
2022-07-26T08:18:57.073Z,83.30
2022-07-26T08:21:24.798Z,84.20
2022-07-26T08:23:54.478Z,84.50
2022-07-26T08:26:21.368Z,84.60
2022-07-26T08:28:48.755Z,84.50
2022-07-26T08:31:26.460Z,84.60
2022-07-26T08:33:53.397Z,84.30
2022-07-26T08:36:20.386Z,84.40
2022-07-26T08:38:47.638Z,83.60
2022-07-26T08:41:17.822Z,83.60
2022-07-26T08:43:51.956Z,83.40
2022-07-26T08:46:27.030Z,83.80
2022-07-26T08:48:55.599Z,83.80
2022-07-26T08:51:25.046Z,84.50
2022-07-26T08:54:02.349Z,84.50
2022-07-26T08:56:37.673Z,84.00
2022-07-26T08:59:19.166Z,84.30
2022-07-26T09:02:07.019Z,84.00
2022-07-26T09:04:43.946Z,82.30
2022-07-26T09:07:17.934Z,84.00
2022-07-26T09:10:00.854Z,84.20
2022-07-26T09:12:30.010Z,83.20
2022-07-26T09:14:58.223Z,84.70
2022-07-26T09:17:38.734Z,85.10
2022-07-26T09:20:24.359Z,85.60
2022-07-26T09:23:12.120Z,85.30
2022-07-26T09:25:44.037Z,85.30
2022-07-26T09:28:30.418Z,86.60
2022-07-26T09:31:05.887Z,84.30
2022-07-26T09:33:48.188Z,85.60
2022-07-26T09:36:18.373Z,84.40
2022-07-26T09:38:50.008Z,86.80
2022-07-26T09:41:36.901Z,87.00
2022-07-26T09:44:19.363Z,84.30
2022-07-26T09:46:58.995Z,85.80
2022-07-26T09:49:32.541Z,84.80
2022-07-26T09:52:20.781Z,88.10
2022-07-26T09:54:49.571Z,84.80
2022-07-26T09:57:21.188Z,86.40
2022-07-26T09:59:48.064Z,85.20
2022-07-26T10:02:15.261Z,85.30
2022-07-26T10:04:43.429Z,85.00
2022-07-26T10:07:11.236Z,85.80
2022-07-26T10:09:50.309Z,86.20
2022-07-26T10:12:19.756Z,85.20
2022-07-26T10:14:51.310Z,87.60
2022-07-26T10:17:29.008Z,90.00
2022-07-26T10:20:01.870Z,87.10
2022-07-26T10:22:30.690Z,90.20
2022-07-26T10:25:18.560Z,84.90
2022-07-26T10:27:49.984Z,90.70
2022-07-26T10:30:20.014Z,88.40
2022-07-26T10:33:13.490Z,88.10
2022-07-26T10:35:43.469Z,76.70
2022-07-26T10:38:26.092Z,85.80
2022-07-26T10:41:06.273Z,87.20
2022-07-26T10:43:42.443Z,82.40
2022-07-26T10:46:23.346Z,84.20
2022-07-26T10:49:05.115Z,83.00
2022-07-26T10:51:41.060Z,70.20
2022-07-26T10:54:14.065Z,85.40
2022-07-26T10:56:41.379Z,79.00
2022-07-26T10:59:09.009Z,81.10
2022-07-26T11:01:45.419Z,80.20
2022-07-26T11:04:23.025Z,78.00
2022-07-26T11:06:50.088Z,71.80
2022-07-26T11:09:21.171Z,77.80
2022-07-26T11:11:48.677Z,76.30
2022-07-26T11:14:18.017Z,75.10
2022-07-26T11:16:52.974Z,74.70
2022-07-26T11:19:24.672Z,73.50
2022-07-26T11:21:58.972Z,72.60
2022-07-26T11:24:26.878Z,69.10
2022-07-26T11:26:54.926Z,73.70
2022-07-26T11:29:38.646Z,73.50
2022-07-26T11:32:19.046Z,63.80
2022-07-26T11:34:46.570Z,61.70
2022-07-26T11:37:14.757Z,69.20
2022-07-26T11:39:41.671Z,68.20
2022-07-26T11:42:11.783Z,66.40
2022-07-26T11:44:43.779Z,66.50
2022-07-26T11:47:13.595Z,67.40
2022-07-26T11:50:01.032Z,67.40
2022-07-26T11:52:32.484Z,67.80
2022-07-26T11:55:00.035Z,63.70
2022-07-26T11:57:32.224Z,68.20
2022-07-26T12:00:01.024Z,66.50
2022-07-26T12:02:30.535Z,70.50
2022-07-26T12:05:21.794Z,71.40
2022-07-26T12:08:00.530Z,64.50
2022-07-26T12:10:28.534Z,65.40
2022-07-26T12:13:16.218Z,69.90
2022-07-26T12:15:52.400Z,60.80
2022-07-26T12:18:31.502Z,64.60
2022-07-26T12:21:07.100Z,65.50
2022-07-26T12:23:46.653Z,67.30
2022-07-26T12:26:27.703Z,64.10
2022-07-26T12:28:57.126Z,67.20
2022-07-26T12:31:34.121Z,69.80
2022-07-26T12:34:01.536Z,64.30
2022-07-26T12:36:30.077Z,69.30
2022-07-26T12:39:01.224Z,69.80
2022-07-26T12:41:39.487Z,67.10
2022-07-26T12:44:12.202Z,66.60
2022-07-26T12:46:44.913Z,68.50
2022-07-26T12:49:12.661Z,67.90
2022-07-26T12:51:39.984Z,67.10
2022-07-26T12:54:07.113Z,67.40
2022-07-26T12:56:34.419Z,68.00
2022-07-26T12:59:01.672Z,68.40
2022-07-26T13:01:39.226Z,68.10
2022-07-26T13:07:26.653Z,64.20
2022-07-26T13:10:14.306Z,69.80
2022-07-26T13:15:59.245Z,69.10
2022-07-26T13:18:26.179Z,68.60
2022-07-26T13:20:53.077Z,68.40
2022-07-26T13:23:22.032Z,68.80
2022-07-26T13:25:53.647Z,69.00
2022-07-26T13:28:21.414Z,69.20
2022-07-26T13:30:49.176Z,70.20
2022-07-26T13:33:40.476Z,69.50
2022-07-26T13:36:07.662Z,63.60
2022-07-26T13:38:34.620Z,69.90
2022-07-26T13:41:02.962Z,67.90
2022-07-26T13:43:35.270Z,66.10
2022-07-26T13:46:02.898Z,64.60
2022-07-26T13:48:29.980Z,64.30
2022-07-26T13:50:57.603Z,64.40
2022-07-26T13:53:25.475Z,65.10
2022-07-26T13:55:52.454Z,65.40
2022-07-26T13:58:21.536Z,66.20
2022-07-26T14:00:49.277Z,66.70
2022-07-26T14:03:16.518Z,66.00
2022-07-26T14:05:43.543Z,65.20
2022-07-26T14:08:10.392Z,65.90
2022-07-26T14:10:39.689Z,64.70
2022-07-26T14:13:08.236Z,65.80
2022-07-26T14:15:35.963Z,63.70
2022-07-26T14:18:03.101Z,62.20
2022-07-26T14:20:30.364Z,60.70
2022-07-26T14:22:57.836Z,60.10
2022-07-26T14:25:26.860Z,59.80
2022-07-26T14:27:55.028Z,59.40
2022-07-26T14:30:22.943Z,59.80
2022-07-26T14:32:50.350Z,60.50
2022-07-26T14:35:17.396Z,61.20
2022-07-26T14:37:45.573Z,61.40
2022-07-26T14:40:17.506Z,61.30
2022-07-26T14:42:46.116Z,59.70
2022-07-26T14:45:14.545Z,61.00
2022-07-26T14:47:41.942Z,61.00
2022-07-26T14:50:10.765Z,61.50
2022-07-26T14:52:45.631Z,62.30
2022-07-26T14:55:14.394Z,61.20
2022-07-26T14:57:41.848Z,62.60
2022-07-26T15:00:13.333Z,62.10
2022-07-26T15:02:43.457Z,61.80
2022-07-26T15:05:14.968Z,62.20
2022-07-26T15:07:43.139Z,61.30
2022-07-26T15:10:13.597Z,63.10
2022-07-26T15:12:41.573Z,63.00
2022-07-26T15:15:09.618Z,63.30
2022-07-26T15:17:37.400Z,63.30
2022-07-26T15:20:05.784Z,63.20
2022-07-26T15:22:33.050Z,63.30
2022-07-26T15:24:59.955Z,63.10
2022-07-26T15:27:26.802Z,63.40
2022-07-26T15:29:54.757Z,64.20
2022-07-26T15:32:25.330Z,64.70
2022-07-26T15:34:52.296Z,64.00
2022-07-26T15:37:19.200Z,64.10
2022-07-26T15:39:46.063Z,64.30
2022-07-26T15:42:15.249Z,63.90
2022-07-26T15:44:42.651Z,64.00
2022-07-26T15:47:11.237Z,63.70
2022-07-26T15:49:40.430Z,63.70
2022-07-26T15:52:11.453Z,64.00
2022-07-26T15:54:40.604Z,62.80
2022-07-26T15:57:07.852Z,60.70
2022-07-26T15:59:35.281Z,66.90
2022-07-26T16:02:04.256Z,67.50
2022-07-26T16:04:31.209Z,67.60
2022-07-26T16:06:58.239Z,66.20
2022-07-26T16:09:25.183Z,65.30
2022-07-26T16:11:52.106Z,65.40
2022-07-26T16:14:19.316Z,65.40
2022-07-26T16:16:46.310Z,64.80
2022-07-26T16:19:15.219Z,64.40
2022-07-26T16:21:42.506Z,65.00
2022-07-26T16:24:09.502Z,64.30
2022-07-26T16:26:36.908Z,61.90
2022-07-26T16:29:04.728Z,59.10
2022-07-26T16:31:33.216Z,58.80
2022-07-26T16:34:00.736Z,57.30
2022-07-26T16:36:28.619Z,56.40
2022-07-26T16:38:55.502Z,56.10
2022-07-26T16:41:22.362Z,55.40
2022-07-26T16:43:49.284Z,55.40
2022-07-26T16:46:16.423Z,55.30
2022-07-26T16:48:44.113Z,54.60
2022-07-26T16:51:13.403Z,54.10
2022-07-26T16:53:41.350Z,54.70
2022-07-26T16:56:08.383Z,54.20
2022-07-26T16:58:36.015Z,54.60
2022-07-26T17:01:03.480Z,55.20
2022-07-26T17:03:30.413Z,55.90
2022-07-26T17:05:57.331Z,56.20
2022-07-26T17:08:25.278Z,56.40
2022-07-26T17:10:52.265Z,56.40
2022-07-26T17:13:19.218Z,55.80
2022-07-26T17:15:46.412Z,55.90
2022-07-26T17:18:13.428Z,56.30
2022-07-26T17:20:40.475Z,55.90
2022-07-26T17:23:08.442Z,56.40
2022-07-26T17:25:35.457Z,56.40
2022-07-26T17:28:02.640Z,57.20
2022-07-26T17:30:29.553Z,57.30
2022-07-26T17:32:56.540Z,57.60
2022-07-26T17:35:23.539Z,57.40
2022-07-26T17:37:50.423Z,57.90
2022-07-26T17:40:17.518Z,58.10
2022-07-26T17:42:44.408Z,58.60
2022-07-26T17:45:11.622Z,58.90
2022-07-26T17:47:38.498Z,59.20
2022-07-26T17:50:33.987Z,59.50
2022-07-26T17:52:55.383Z,59.30
2022-07-26T17:55:22.831Z,59.70
2022-07-26T17:57:50.580Z,59.70
2022-07-26T18:00:27.057Z,59.80
2022-07-26T18:02:56.825Z,58.20
2022-07-26T18:05:29.936Z,59.90
2022-07-26T18:07:57.296Z,59.70
2022-07-26T18:10:24.289Z,59.90
2022-07-26T18:12:51.183Z,59.60
2022-07-26T18:15:18.083Z,59.60
2022-07-26T18:17:44.986Z,59.50
2022-07-26T18:20:12.835Z,59.60
2022-07-26T18:22:40.204Z,59.90
2022-07-26T18:25:08.069Z,59.70
2022-07-26T18:27:35.483Z,59.60
2022-07-26T18:30:03.501Z,59.70
2022-07-26T18:32:34.252Z,59.80
2022-07-26T18:35:01.423Z,60.20
2022-07-26T18:37:28.366Z,60.10
2022-07-26T18:39:57.812Z,60.30
2022-07-26T18:42:25.915Z,60.30
2022-07-26T18:44:52.927Z,60.60
2022-07-26T18:47:19.840Z,60.50
2022-07-26T18:49:46.832Z,60.70
2022-07-26T18:52:14.491Z,60.90
2022-07-26T18:54:41.783Z,60.90
2022-07-26T18:57:08.809Z,60.80
2022-07-26T18:59:35.782Z,60.90
2022-07-26T19:02:04.053Z,61.20
2022-07-26T19:04:31.143Z,61.30
2022-07-26T19:06:58.086Z,61.30
2022-07-26T19:09:25.057Z,61.60
2022-07-26T19:11:51.956Z,61.80
2022-07-26T19:14:18.830Z,62.00
2022-07-26T19:16:45.808Z,62.20
2022-07-26T19:19:13.154Z,62.40
2022-07-26T19:21:45.215Z,62.50
2022-07-26T19:24:12.690Z,62.40
2022-07-26T19:26:39.573Z,62.40
2022-07-26T19:29:06.559Z,62.50
2022-07-26T19:31:33.691Z,62.70
2022-07-26T19:34:00.643Z,62.90
2022-07-26T19:36:27.530Z,63.00
2022-07-26T19:38:57.031Z,62.90
2022-07-26T19:41:23.981Z,62.90
2022-07-26T19:43:50.840Z,62.70
2022-07-26T19:46:17.897Z,62.50
2022-07-26T19:48:44.983Z,62.40
2022-07-26T19:51:12.262Z,62.40
2022-07-26T19:53:39.248Z,62.50
2022-07-26T19:56:07.364Z,62.70
2022-07-26T19:58:34.294Z,62.90
2022-07-26T20:01:01.468Z,63.30
2022-07-26T20:03:28.518Z,63.30
2022-07-26T20:05:56.806Z,63.40
2022-07-26T20:08:24.222Z,63.60
2022-07-26T20:10:52.397Z,63.90
2022-07-26T20:13:19.376Z,63.90
2022-07-26T20:15:49.124Z,64.20
2022-07-26T20:18:18.277Z,64.20
2022-07-26T20:20:45.267Z,64.30
2022-07-26T20:23:12.202Z,64.60
2022-07-26T20:25:39.055Z,64.70
2022-07-26T20:28:06.027Z,65.00
2022-07-26T20:30:32.924Z,65.10
2022-07-26T20:32:59.831Z,65.20
2022-07-26T20:35:26.728Z,65.10
2022-07-26T20:37:53.594Z,65.30
2022-07-26T20:40:21.184Z,65.40
2022-07-26T20:42:50.354Z,65.40
2022-07-26T20:45:17.818Z,65.30
2022-07-26T20:47:44.737Z,65.50
2022-07-26T20:50:12.668Z,65.50
2022-07-26T20:52:40.846Z,65.50
2022-07-26T20:55:09.345Z,65.80
2022-07-26T20:57:36.952Z,66.10
2022-07-26T21:00:10.990Z,66.20
2022-07-26T21:02:38.448Z,65.90
2022-07-26T21:05:06.208Z,66.60
2022-07-26T21:07:55.199Z,66.80
2022-07-26T21:10:20.981Z,67.00
2022-07-26T21:12:49.271Z,67.20
2022-07-26T21:15:16.421Z,67.30
2022-07-26T21:17:43.364Z,67.50
2022-07-26T21:20:10.632Z,67.60
2022-07-26T21:22:37.599Z,67.60
2022-07-26T21:25:06.332Z,67.80
2022-07-26T21:27:33.288Z,67.90
2022-07-26T21:30:00.452Z,68.00
2022-07-26T21:32:31.513Z,67.90
2022-07-26T21:34:59.353Z,68.00
2022-07-26T21:37:26.800Z,68.10
2022-07-26T21:39:53.868Z,68.30
2022-07-26T21:42:20.804Z,68.30
2022-07-26T21:44:47.755Z,68.20
2022-07-26T21:47:14.681Z,68.40
2022-07-26T21:49:41.654Z,68.40
2022-07-26T21:52:08.542Z,68.40
2022-07-26T21:54:35.469Z,68.50
2022-07-26T21:57:02.367Z,68.50
2022-07-26T21:59:29.267Z,68.60
2022-07-26T22:01:56.218Z,68.70
2022-07-26T22:04:24.296Z,68.90
2022-07-26T22:06:51.207Z,68.90
2022-07-26T22:09:18.106Z,69.00
2022-07-26T22:11:45.155Z,69.00
2022-07-26T22:14:11.987Z,69.00
2022-07-26T22:16:39.356Z,69.00
2022-07-26T22:19:06.634Z,68.90
2022-07-26T22:21:33.537Z,68.90
2022-07-26T22:24:00.412Z,68.90
2022-07-26T22:26:31.133Z,68.90
2022-07-26T22:28:59.269Z,68.90
2022-07-26T22:31:26.505Z,67.50
2022-07-26T22:33:53.485Z,69.20
2022-07-26T22:36:20.671Z,69.30
2022-07-26T22:38:47.626Z,69.30
2022-07-26T22:41:14.529Z,69.30
2022-07-26T22:43:41.907Z,69.30
2022-07-26T22:46:08.943Z,69.40
2022-07-26T22:48:38.570Z,69.40
2022-07-26T22:51:06.399Z,69.50
2022-07-26T22:53:33.281Z,69.60
2022-07-26T22:56:00.231Z,69.50
2022-07-26T22:58:27.116Z,69.50
2022-07-26T23:00:54.461Z,69.50
2022-07-26T23:03:21.924Z,69.50
2022-07-26T23:05:52.104Z,69.50
2022-07-26T23:11:06.761Z,69.40
2022-07-26T23:13:34.101Z,69.30
2022-07-26T23:16:02.010Z,69.40
2022-07-26T23:18:30.888Z,69.40
2022-07-26T23:20:58.169Z,69.50
2022-07-26T23:23:29.800Z,69.50
2022-07-26T23:26:00.749Z,69.70
2022-07-26T23:28:37.187Z,70.00
2022-07-26T23:31:11.149Z,70.00
2022-07-26T23:33:50.722Z,70.10
2022-07-26T23:36:30.228Z,69.60
2022-07-26T23:38:59.250Z,69.20
2022-07-26T23:41:27.790Z,70.00
2022-07-26T23:43:56.079Z,70.00
2022-07-26T23:46:24.524Z,70.00
2022-07-26T23:48:52.351Z,70.10
2022-07-26T23:51:19.795Z,70.30
2022-07-26T23:53:47.844Z,70.30
2022-07-26T23:56:15.450Z,70.30
2022-07-26T23:58:42.893Z,70.30
